| time (UTC) | temp C | wind direction | speed KPH | gust KPH | rain 1hr cm | rain 24hr cm | rain mn cm | humidity % | barometer mb |
| 20260906231600 | 17 | 195 | 3.2 | 11.3 | 0.00 | 0.28 | 0.18 | 68 | 1005.5 |
| 20260906230057 | 17 | 180 | 4.8 | 9.7 | 0.00 | 0.28 | 0.18 | 70 | 1005.6 |
| 20260906224556 | 16 | 175 | 6.4 | 12.9 | 0.00 | 0.28 | 0.18 | 70 | 1005.8 |
| 20260906223055 | 16 | 180 | 1.6 | 9.7 | 0.00 | 0.28 | 0.18 | 72 | 1006.0 |
| 20260906221557 | 16 | 180 | 3.2 | 9.7 | 0.00 | 0.28 | 0.18 | 72 | 1005.9 |
| 20260906220053 | 16 | 180 | 1.6 | 16.1 | 0.00 | 0.28 | 0.18 | 74 | 1005.9 |
| 20260906214553 | 16 | 180 | 3.2 | 8.0 | 0.00 | 0.28 | 0.18 | 72 | 1005.9 |
| 20260906213057 | 16 | 180 | 3.2 | 9.7 | 0.00 | 0.28 | 0.18 | 70 | 1005.9 |
| 20260906211553 | 17 | 253 | 0.0 | 4.8 | 0.00 | 0.28 | 0.18 | 69 | 1005.8 |
| 20260906210057 | 17 | 231 | 1.6 | 9.7 | 0.00 | 0.28 | 0.18 | 69 | 1005.8 |
| 20260906204609 | 17 | 191 | 1.6 | 11.3 | 0.00 | 0.28 | 0.18 | 70 | 1005.8 |
| 20260906203051 | 17 | 225 | 1.6 | 11.3 | 0.00 | 0.28 | 0.18 | 71 | 1005.8 |
| 20260906201603 | 16 | 255 | 1.6 | 12.9 | 0.00 | 0.28 | 0.18 | 70 | 1005.9 |
| 20260906200051 | 17 | 250 | 0.0 | 11.3 | 0.00 | 0.28 | 0.18 | 70 | 1006.0 |
| 20260906194549 | 17 | 268 | 4.8 | 11.3 | 0.00 | 0.28 | 0.18 | 68 | 1006.1 |
| 20260906193049 | 17 | 265 | 1.6 | 11.3 | 0.00 | 0.28 | 0.18 | 67 | 1006.0 |
| 20260906191548 | 18 | 257 | 3.2 | 17.7 | 0.00 | 0.28 | 0.18 | 64 | 1006.0 |
| 20260906190046 | 18 | 230 | 6.4 | 17.7 | 0.00 | 0.28 | 0.18 | 63 | 1005.9 |
| 20260906184543 | 17 | 199 | 6.4 | 19.3 | 0.00 | 0.28 | 0.18 | 69 | 1005.8 |
| 20260906183040 | 16 | 196 | 8.0 | 19.3 | 0.00 | 0.28 | 0.18 | 75 | 1005.8 |
| 20260906181535 | 15 | 194 | 8.0 | 20.9 | 0.03 | 0.28 | 0.18 | 82 | 1006.3 |
| 20260906180034 | 15 | 219 | 3.2 | 12.9 | 0.08 | 0.28 | 0.18 | 86 | 1006.7 |
| 20260906174528 | 13 | 196 | 6.4 | 16.1 | 0.08 | 0.28 | 0.18 | 89 | 1007.1 |
| 20260906173027 | 12 | 180 | 8.0 | 20.9 | 0.08 | 0.28 | 0.18 | 90 | 1007.1 |
| 20260906171525 | 12 | 180 | 8.0 | 17.7 | 0.05 | 0.25 | 0.15 | 87 | 1008.3 |
| 20260906170024 | 13 | 180 | 8.0 | 14.5 | 0.00 | 0.20 | 0.10 | 87 | 1008.3 |
| 20260906164523 | 13 | 158 | 3.2 | 6.4 | 0.00 | 0.20 | 0.10 | 87 | 1008.1 |
| 20260906163025 | 13 | 158 | 0.0 | 0.0 | 0.03 | 0.20 | 0.10 | 88 | 1008.1 |
| 20260906161523 | 13 | 158 | 0.0 | 3.2 | 0.03 | 0.20 | 0.10 | 92 | 1008.0 |
| 20260906160020 | 12 | 158 | 3.2 | 6.4 | 0.03 | 0.20 | 0.10 | 91 | 1008.1 |
| 20260906154536 | 12 | 176 | 4.8 | 14.5 | 0.03 | 0.20 | 0.10 | 89 | 1008.6 |
| 20260906153019 | 11 | 180 | 6.4 | 14.5 | 0.05 | 0.18 | 0.08 | 91 | 1008.7 |
| 20260906151518 | 11 | 143 | 8.0 | 24.1 | 0.08 | 0.18 | 0.08 | 90 | 1008.9 |
| 20260906150018 | 11 | 180 | 11.3 | 25.7 | 0.08 | 0.18 | 0.08 | 92 | 1008.9 |
| 20260906144519 | 11 | 180 | 17.7 | 37.0 | 0.08 | 0.18 | 0.08 | 92 | 1008.9 |
| 20260906143014 | 12 | 101 | 17.7 | 24.1 | 0.03 | 0.13 | 0.03 | 85 | 1009.6 |
| 20260906141515 | 14 | 180 | 3.2 | 8.0 | 0.00 | 0.10 | 0.00 | 80 | 1009.3 |
| 20260906140025 | 14 | 212 | 6.4 | 16.1 | 0.00 | 0.10 | 0.00 | 80 | 1008.6 |
| 20260906134512 | 14 | 209 | 3.2 | 16.1 | 0.00 | 0.20 | 0.00 | 79 | 1008.4 |
| 20260906133021 | 14 | 207 | 9.7 | 17.7 | 0.00 | 0.20 | 0.00 | 78 | 1008.4 |
| 20260906131509 | 14 | 212 | 8.0 | 16.1 | 0.00 | 0.20 | 0.00 | 79 | 1008.3 |
| 20260906130019 | 14 | 205 | 8.0 | 14.5 | 0.00 | 0.20 | 0.00 | 79 | 1008.7 |
| 20260906124506 | 13 | 173 | 8.0 | 16.1 | 0.00 | 0.20 | 0.00 | 80 | 1008.6 |
| 20260906123006 | 12 | 180 | 4.8 | 16.1 | 0.00 | 0.20 | 0.00 | 82 | 1008.6 |
| 20260906121504 | 13 | 205 | 11.3 | 24.1 | 0.00 | 0.20 | 0.00 | 83 | 1008.5 |
| 20260906120005 | 13 | 209 | 11.3 | 27.4 | 0.00 | 0.20 | 0.00 | 82 | 1008.4 |
| 20260906114508 | 13 | 217 | 11.3 | 19.3 | 0.00 | 0.20 | 0.00 | 81 | 1008.9 |
| 20260906113008 | 13 | 184 | 12.9 | 22.5 | 0.00 | 0.20 | 0.00 | 81 | 1008.9 |
| 20260906111503 | 12 | 179 | 11.3 | 19.3 | 0.00 | 0.20 | 0.00 | 79 | 1008.6 |
| 20260906110003 | 12 | 180 | 11.3 | 20.9 | 0.00 | 0.20 | 0.00 | 80 | 1008.6 |
| 20260906104600 | 12 | 198 | 9.7 | 16.1 | 0.00 | 0.20 | 0.00 | 78 | 1008.7 |
| 20260906104502 | 12 | 186 | 9.7 | 16.1 | 0.00 | 0.20 | 0.00 | 78 | 1008.7 |
| 20260906103101 | 12 | 182 | 11.3 | 19.3 | 0.00 | 0.20 | 0.00 | 77 | 1008.7 |
| 20260906101558 | 13 | 180 | 9.7 | 17.7 | 0.00 | 0.20 | 0.00 | 76 | 1008.8 |
| 20260906094601 | 13 | 193 | 6.4 | 12.9 | 0.00 | 0.20 | 0.00 | 80 | 1008.9 |
| 20260906093055 | 12 | 214 | 4.8 | 12.9 | 0.00 | 0.20 | 0.00 | 85 | 1009.1 |
| 20260906091551 | 12 | 180 | 8.0 | 20.9 | 0.00 | 0.20 | 0.00 | 88 | 1009.4 |
| 20260906090055 | 11 | 172 | 11.3 | 33.8 | 0.00 | 0.20 | 0.00 | 90 | 1010.0 |
| 20260906084554 | 12 | 129 | 16.1 | 32.2 | 0.00 | 0.20 | 0.00 | 87 | 1010.3 |
| 20260906083046 | 13 | 180 | 8.0 | 24.1 | 0.00 | 0.20 | 0.00 | 82 | 1010.5 |
| 20260906081544 | 13 | 186 | 11.3 | 22.5 | 0.00 | 0.20 | 0.00 | 80 | 1009.4 |
| 20260906080052 | 13 | 179 | 12.9 | 22.5 | 0.00 | 0.20 | 0.00 | 77 | 1009.3 |
| 20260906074549 | 14 | 216 | 11.3 | 22.5 | 0.00 | 0.20 | 0.00 | 76 | 1009.3 |
| 20260906073042 | 14 | 205 | 8.0 | 19.3 | 0.00 | 0.20 | 0.00 | 77 | 1009.5 |
| 20260906071539 | 14 | 210 | 8.0 | 14.5 | 0.00 | 0.20 | 0.00 | 77 | 1009.7 |
| 20260906070039 | 13 | 180 | 9.7 | 17.7 | 0.00 | 0.20 | 0.00 | 78 | 1010.0 |
| 20260906064536 | 12 | 181 | 8.0 | 17.7 | 0.00 | 0.20 | 0.00 | 84 | 1010.4 |
| 20260906063037 | 13 | 160 | 9.7 | 16.1 | 0.00 | 0.20 | 0.00 | 82 | 1010.5 |
| 20260906061529 | 14 | 180 | 8.0 | 17.7 | 0.00 | 0.20 | 0.00 | 73 | 1010.6 |
| 20260906060024 | 14 | 181 | 9.7 | 17.7 | 0.03 | 0.20 | 0.00 | 72 | 1010.5 |
| 20260906054546 | 13 | 180 | 11.3 | 19.3 | 0.03 | 0.20 | 0.20 | 72 | 1010.2 |
| 20260906053023 | 13 | 167 | 9.7 | 19.3 | 0.03 | 0.20 | 0.20 | 76 | 1010.2 |
| 20260906051531 | 12 | 180 | 6.4 | 16.1 | 0.03 | 0.20 | 0.20 | 82 | 1010.4 |
| 20260906050028 | 13 | 193 | 11.3 | 29.0 | 0.00 | 0.18 | 0.18 | 76 | 1010.4 |
| 20260906044522 | 13 | 180 | 8.0 | 19.3 | 0.00 | 0.18 | 0.18 | 72 | 1011.1 |
| 20260906043022 | 13 | 180 | 11.3 | 22.5 | 0.05 | 0.18 | 0.18 | 75 | 1009.7 |
| 20260906041523 | 13 | 181 | 11.3 | 17.7 | 0.08 | 0.18 | 0.18 | 73 | 1009.5 |
| 20260906040021 | 13 | 190 | 11.3 | 19.3 | 0.08 | 0.18 | 0.18 | 74 | 1009.6 |
| 20260906034523 | 13 | 180 | 3.2 | 14.5 | 0.08 | 0.18 | 0.18 | 81 | 1010.1 |
| 20260906033020 | 16 | 180 | 6.4 | 16.1 | 0.03 | 0.13 | 0.13 | 62 | 1010.9 |
| 20260906031552 | 16 | 180 | 6.4 | 16.1 | 0.00 | 0.10 | 0.10 | 55 | 1010.4 |
| 20260906030016 | 15 | 186 | 8.0 | 14.5 | 0.00 | 0.10 | 0.10 | 62 | 1009.2 |
| 20260906024535 | 14 | 165 | 0.0 | 4.8 | 0.00 | 0.10 | 0.10 | 65 | 1008.6 |
| 20260906023017 | 15 | 165 | 3.2 | 9.7 | 0.00 | 0.10 | 0.10 | 62 | 1008.3 |
| 20260906021515 | 16 | 180 | 4.8 | 12.9 | 0.00 | 0.10 | 0.10 | 57 | 1008.4 |
| 20260906020014 | 16 | 198 | 4.8 | 11.3 | 0.00 | 0.10 | 0.10 | 54 | 1008.2 |
| 20260906014519 | 17 | 197 | 4.8 | 11.3 | 0.00 | 0.10 | 0.10 | 54 | 1008.3 |
| 20260906013014 | 17 | 191 | 4.8 | 12.9 | 0.00 | 0.10 | 0.10 | 53 | 1008.3 |
| 20260906011512 | 17 | 197 | 8.0 | 14.5 | 0.00 | 0.10 | 0.10 | 52 | 1008.3 |
| 20260906010031 | 18 | 208 | 6.4 | 11.3 | 0.00 | 0.10 | 0.10 | 53 | 1008.3 |
| 20260906004511 | 18 | 205 | 6.4 | 16.1 | 0.00 | 0.10 | 0.10 | 52 | 1008.3 |
| 20260906003010 | 19 | 184 | 8.0 | 19.3 | 0.00 | 0.10 | 0.10 | 51 | 1008.5 |
| 20260906001509 | 20 | 219 | 9.7 | 16.1 | 0.00 | 0.10 | 0.10 | 49 | 1008.5 |
| 20260906000011 | 20 | 200 | 9.7 | 16.1 | 0.00 | 0.10 | 0.10 | 48 | 1008.6 |
| 20260905234507 | 19 | 181 | 8.0 | 14.5 | 0.00 | 0.10 | 0.10 | 51 | 1008.9 |
| 20260905233006 | 20 | 181 | 9.7 | 17.7 | 0.00 | 0.10 | 0.10 | 48 | 1008.7 |